createdAt,value
2019-04-07T00:00:36.153Z,94077.20
2019-04-07T00:03:24.993Z,94077.18
2019-04-07T00:06:14.878Z,94080.09
2019-04-07T00:09:06.035Z,94078.47
2019-04-07T00:11:55.224Z,94073.64
2019-04-07T00:14:44.732Z,94075.02
2019-04-07T00:17:33.737Z,94073.03
2019-04-07T00:20:23.635Z,94069.42
2019-04-07T00:23:13.131Z,94065.90
2019-04-07T00:26:02.615Z,94065.75
2019-04-07T00:28:51.183Z,94069.63
2019-04-07T00:31:39.884Z,94065.48
2019-04-07T00:34:28.022Z,94064.69
2019-04-07T00:37:16.981Z,94063.23
2019-04-07T00:40:08.631Z,94068.50
2019-04-07T00:42:58.212Z,94067.88
2019-04-07T00:45:48.114Z,94072.13
2019-04-07T00:48:36.940Z,94068.49
2019-04-07T00:51:25.774Z,94075.17
2019-04-07T00:54:14.110Z,94075.84
2019-04-07T00:57:03.006Z,94077.67
2019-04-07T00:59:51.834Z,94068.42
2019-04-07T01:02:40.810Z,94071.16
2019-04-07T01:05:38.152Z,94073.28
2019-04-07T01:08:20.853Z,94072.21
2019-04-07T01:11:09.829Z,94066.23
2019-04-07T01:13:58.238Z,94063.00
2019-04-07T01:16:47.223Z,94066.95
2019-04-07T01:19:36.610Z,94074.09
2019-04-07T01:22:25.799Z,94075.42
2019-04-07T01:25:14.887Z,94069.58
2019-04-07T01:28:04.452Z,94066.88
2019-04-07T01:30:53.359Z,94077.15
2019-04-07T01:33:42.225Z,94073.47
2019-04-07T01:36:32.622Z,94074.19
2019-04-07T01:39:22.035Z,94075.48
2019-04-07T01:42:25.630Z,94069.65
2019-04-07T01:45:39.753Z,94068.05
2019-04-07T01:48:46.846Z,94074.41
2019-04-07T01:51:43.043Z,94074.79
2019-04-07T01:54:50.052Z,94079.30
2019-04-07T01:57:47.711Z,94068.06
2019-04-07T02:01:08.249Z,94078.94
2019-04-07T02:04:06.027Z,94084.20
2019-04-07T02:07:20.275Z,94081.03
2019-04-07T02:10:31.864Z,94080.81
2019-04-07T02:13:43.010Z,94079.97
2019-04-07T02:16:47.757Z,94075.62
2019-04-07T02:19:46.195Z,94080.77
2019-04-07T02:23:00.831Z,94079.34
2019-04-07T02:26:04.761Z,94079.78
2019-04-07T02:29:02.686Z,94083.50
2019-04-07T02:31:58.606Z,94084.16
2019-04-07T02:35:06.040Z,94077.05
2019-04-07T02:38:03.234Z,94070.25
2019-04-07T02:41:09.019Z,94071.16
2019-04-07T02:44:23.922Z,94076.78
2019-04-07T02:47:31.279Z,94076.92
2019-04-07T02:50:36.760Z,94079.27
2019-04-07T02:53:51.039Z,94081.16
2019-04-07T02:57:08.417Z,94081.34
2019-04-07T03:00:08.682Z,94083.16
2019-04-07T03:03:07.631Z,94090.69
2019-04-07T03:06:37.272Z,94087.53
2019-04-07T03:09:31.150Z,94091.03
2019-04-07T03:12:34.811Z,94095.57
2019-04-07T03:15:54.895Z,94098.98
2019-04-07T03:18:52.640Z,94099.97
2019-04-07T03:21:54.351Z,94098.98
2019-04-07T03:25:00.719Z,94106.34
2019-04-07T03:28:08.792Z,94106.41
2019-04-07T03:31:14.769Z,94104.45
2019-04-07T03:34:35.790Z,94106.52
2019-04-07T03:37:43.022Z,94108.53
2019-04-07T03:40:44.562Z,94108.91
2019-04-07T03:43:41.792Z,94103.28
2019-04-07T03:46:59.914Z,94098.31
2019-04-07T03:49:55.534Z,94103.86
2019-04-07T03:52:49.568Z,94100.39
2019-04-07T03:56:13.474Z,94107.16
2019-04-07T03:59:21.440Z,94118.30
2019-04-07T04:02:26.341Z,94113.68
2019-04-07T04:05:35.933Z,94110.26
2019-04-07T04:08:53.018Z,94117.58
2019-04-07T04:11:47.693Z,94114.33
2019-04-07T04:14:45.547Z,94114.52
2019-04-07T04:17:34.805Z,94122.60
2019-04-07T04:20:24.099Z,94123.09
2019-04-07T04:23:14.440Z,94119.20
2019-04-07T04:26:04.400Z,94118.14
2019-04-07T04:28:52.692Z,94118.14
2019-04-07T04:31:40.817Z,94119.97
2019-04-07T04:34:28.951Z,94120.28
2019-04-07T04:37:33.271Z,94121.47
2019-04-07T04:40:09.324Z,94128.97
2019-04-07T04:42:58.340Z,94128.97
2019-04-07T04:45:48.304Z,94127.23
2019-04-07T04:48:37.489Z,94134.41
2019-04-07T04:51:26.195Z,94139.84
2019-04-07T04:54:15.065Z,94146.36
2019-04-07T04:57:06.439Z,94145.56
2019-04-07T04:59:54.038Z,94144.56
2019-04-07T05:02:43.526Z,94150.42
2019-04-07T05:05:33.418Z,94150.42
2019-04-07T05:08:21.806Z,94157.65
2019-04-07T05:11:10.849Z,94170.67
2019-04-07T05:14:00.292Z,94171.41
2019-04-07T05:16:48.447Z,94179.47
2019-04-07T05:19:37.378Z,94181.33
2019-04-07T05:22:25.791Z,94183.92
2019-04-07T05:25:14.573Z,94192.59
2019-04-07T05:28:03.711Z,94200.75
2019-04-07T05:30:51.880Z,94193.47
2019-04-07T05:33:41.124Z,94195.95
2019-04-07T05:36:30.353Z,94194.94
2019-04-07T05:39:19.067Z,94187.16
2019-04-07T05:42:08.037Z,94191.75
2019-04-07T05:44:56.119Z,94180.81
2019-04-07T05:47:48.645Z,94188.58
2019-04-07T05:50:34.992Z,94184.91
2019-04-07T05:53:23.504Z,94185.56
2019-04-07T05:56:12.267Z,94180.84
2019-04-07T05:59:01.719Z,94177.32
2019-04-07T06:01:52.501Z,94180.64
2019-04-07T06:04:40.412Z,94177.64
2019-04-07T06:07:31.791Z,94184.33
2019-04-07T06:10:22.325Z,94180.78
2019-04-07T06:13:12.922Z,94186.37
2019-04-07T06:16:00.049Z,94194.70
2019-04-07T06:18:48.455Z,94186.42
2019-04-07T06:21:37.830Z,94190.30
2019-04-07T06:24:31.625Z,94188.89
2019-04-07T06:27:17.850Z,94193.25
2019-04-07T06:30:08.475Z,94192.06
2019-04-07T06:32:56.986Z,94192.08
2019-04-07T06:35:47.314Z,94194.83
2019-04-07T06:38:41.536Z,94191.89
2019-04-07T06:41:30.068Z,94191.80
2019-04-07T06:44:19.802Z,94196.77
2019-04-07T06:47:11.949Z,94195.83
2019-04-07T06:50:20.599Z,94196.91
2019-04-07T06:53:24.565Z,94200.13
2019-04-07T06:56:25.976Z,94200.37
2019-04-07T06:59:22.945Z,94201.51
2019-04-07T07:02:31.661Z,94212.30
2019-04-07T07:05:36.242Z,94212.98
2019-04-07T07:08:45.765Z,94211.44
2019-04-07T07:11:53.998Z,94214.59
2019-04-07T07:14:53.852Z,94215.27
2019-04-07T07:17:50.822Z,94218.93
2019-04-07T07:21:05.018Z,94212.34
2019-04-07T07:23:53.754Z,94217.16
2019-04-07T07:26:42.888Z,94208.30
2019-04-07T07:29:33.726Z,94216.10
2019-04-07T07:32:22.761Z,94216.40
2019-04-07T07:35:15.029Z,94218.84
2019-04-07T07:38:02.774Z,94228.16
2019-04-07T07:40:54.351Z,94225.96
2019-04-07T07:43:43.555Z,94229.92
2019-04-07T07:46:32.378Z,94232.59
2019-04-07T07:49:21.430Z,94231.47
2019-04-07T07:52:11.634Z,94229.11
2019-04-07T07:55:02.550Z,94225.73
2019-04-07T07:57:54.153Z,94229.77
2019-04-07T08:00:43.371Z,94229.95
2019-04-07T08:03:32.519Z,94232.48
2019-04-07T08:06:21.568Z,94236.72
2019-04-07T08:09:14.932Z,94239.19
2019-04-07T08:12:02.446Z,94243.48
2019-04-07T08:14:55.077Z,94247.58
2019-04-07T08:17:41.050Z,94255.47
2019-04-07T08:20:30.636Z,94257.23
2019-04-07T08:23:19.823Z,94250.38
2019-04-07T08:26:11.721Z,94261.00
2019-04-07T08:29:03.248Z,94259.95
2019-04-07T08:31:54.836Z,94262.70
2019-04-07T08:34:41.542Z,94261.25
2019-04-07T08:37:30.890Z,94253.82
2019-04-07T08:40:19.934Z,94266.03
2019-04-07T08:43:08.930Z,94259.55
2019-04-07T08:45:58.044Z,94252.28
2019-04-07T08:48:49.710Z,94262.58
2019-04-07T08:51:37.238Z,94252.24
2019-04-07T08:54:26.599Z,94255.63
2019-04-07T08:57:16.317Z,94259.53
2019-04-07T09:00:13.163Z,94253.92
2019-04-07T09:03:03.703Z,94254.71
2019-04-07T09:05:48.557Z,94259.44
2019-04-07T09:08:39.055Z,94261.52
2019-04-07T09:11:28.214Z,94263.62
2019-04-07T09:14:17.620Z,94263.67
2019-04-07T09:17:44.508Z,94265.89
2019-04-07T09:20:44.927Z,94266.98
2019-04-07T09:23:58.130Z,94260.45
2019-04-07T09:26:55.699Z,94267.66
2019-04-07T09:30:02.469Z,94267.72
2019-04-07T09:33:00.272Z,94272.41
2019-04-07T09:36:10.181Z,94273.92
2019-04-07T09:39:52.903Z,94271.25
2019-04-07T09:42:57.380Z,94267.02
2019-04-07T09:46:03.546Z,94267.41
2019-04-07T09:49:21.273Z,94269.21
2019-04-07T09:52:19.052Z,94271.38
2019-04-07T09:55:27.657Z,94271.73
2019-04-07T09:58:30.881Z,94275.91
2019-04-07T10:01:45.022Z,94274.28
2019-04-07T10:04:56.372Z,94274.69
2019-04-07T10:08:05.618Z,94282.09
2019-04-07T10:11:22.879Z,94280.55
2019-04-07T10:14:29.600Z,94283.23
2019-04-07T10:17:45.204Z,94287.41
2019-04-07T10:20:51.743Z,94297.91
2019-04-07T10:23:59.495Z,94289.95
2019-04-07T10:27:10.857Z,94282.48
2019-04-07T10:30:17.872Z,94287.68
2019-04-07T10:33:18.045Z,94289.81
2019-04-07T10:36:29.324Z,94284.99
2019-04-07T10:39:40.042Z,94292.53
2019-04-07T10:42:55.345Z,94282.69
2019-04-07T10:45:54.886Z,94286.78
2019-04-07T10:52:07.147Z,94279.25
2019-04-07T10:55:09.804Z,94282.83
2019-04-07T10:58:09.075Z,94282.13
2019-04-07T11:01:15.787Z,94290.72
2019-04-07T11:04:23.005Z,94284.65
2019-04-07T11:07:29.695Z,94281.30
2019-04-07T11:10:39.383Z,94275.64
2019-04-07T11:13:51.625Z,94275.34
2019-04-07T11:17:06.419Z,94275.45
2019-04-07T11:20:10.418Z,94274.21
2019-04-07T11:23:08.495Z,94278.18
2019-04-07T11:26:11.274Z,94275.02
2019-04-07T11:29:08.515Z,94277.72
2019-04-07T11:32:04.070Z,94279.52
2019-04-07T11:35:18.247Z,94284.31
2019-04-07T11:38:35.420Z,94282.56
2019-04-07T11:41:39.182Z,94280.52
2019-04-07T11:44:35.651Z,94281.27
2019-04-07T11:47:41.620Z,94280.21
2019-04-07T11:50:40.712Z,94279.53
2019-04-07T11:53:44.491Z,94286.63
2019-04-07T11:56:41.711Z,94276.03
2019-04-07T12:00:08.647Z,94278.23
2019-04-07T12:03:28.982Z,94277.98
2019-04-07T12:06:48.833Z,94280.70
2019-04-07T12:10:01.630Z,94269.70
2019-04-07T12:13:09.041Z,94272.22
2019-04-07T12:17:00.202Z,94270.76
2019-04-07T12:20:08.232Z,94273.72
2019-04-07T12:23:06.450Z,94275.69
2019-04-07T12:26:05.202Z,94263.14
2019-04-07T12:29:22.248Z,94271.41
2019-04-07T12:32:28.154Z,94259.63
2019-04-07T12:35:39.379Z,94259.63
2019-04-07T12:38:47.783Z,94266.20
2019-04-07T12:41:57.239Z,94253.53
2019-04-07T12:44:53.897Z,94256.25
2019-04-07T12:47:57.121Z,94251.64
2019-04-07T12:51:19.848Z,94248.91
2019-04-07T12:54:15.708Z,94256.40
2019-04-07T12:57:23.006Z,94248.34
2019-04-07T13:00:24.983Z,94254.13
2019-04-07T13:03:42.501Z,94244.67
2019-04-07T13:06:46.928Z,94248.89
2019-04-07T13:10:07.398Z,94238.86
2019-04-07T13:13:05.795Z,94231.13
2019-04-07T13:16:29.519Z,94230.14
2019-04-07T13:19:28.694Z,94222.36
2019-04-07T13:22:42.721Z,94219.34
2019-04-07T13:25:38.574Z,94223.92
2019-04-07T13:28:58.945Z,94224.22
2019-04-07T13:32:06.189Z,94223.40
2019-04-07T13:35:04.377Z,94216.24
2019-04-07T13:38:12.158Z,94218.97
2019-04-07T13:41:37.227Z,94217.29
2019-04-07T13:44:27.184Z,94225.73
2019-04-07T13:47:44.844Z,94219.99
2019-04-07T13:50:52.533Z,94221.52
2019-04-07T13:53:49.283Z,94227.59
2019-04-07T13:57:00.342Z,94223.37
2019-04-07T14:00:07.275Z,94224.30
2019-04-07T14:03:14.624Z,94221.02
2019-04-07T14:06:22.233Z,94224.32
2019-04-07T14:09:32.331Z,94228.38
2019-04-07T14:12:44.414Z,94233.74
2019-04-07T14:16:04.274Z,94231.95
2019-04-07T14:19:07.708Z,94234.13
2019-04-07T14:22:15.526Z,94232.19
2019-04-07T14:25:23.458Z,94238.34
2019-04-07T14:28:24.490Z,94236.24
2019-04-07T14:31:31.391Z,94236.05
2019-04-07T14:34:42.840Z,94243.47
2019-04-07T14:37:44.345Z,94242.58
2019-04-07T14:40:55.296Z,94245.84
2019-04-07T14:44:06.974Z,94242.62
2019-04-07T14:47:06.503Z,94242.41
2019-04-07T14:50:26.536Z,94253.33
2019-04-07T14:53:30.273Z,94242.56
2019-04-07T14:56:28.491Z,94244.88
2019-04-07T14:59:36.556Z,94236.39
2019-04-07T15:02:25.219Z,94235.48
2019-04-07T15:05:21.822Z,94237.74
2019-04-07T15:08:30.324Z,94237.03
2019-04-07T15:11:26.985Z,94237.34
2019-04-07T15:14:15.608Z,94238.23
2019-04-07T15:17:04.694Z,94234.06
2019-04-07T15:19:54.090Z,94235.53
2019-04-07T15:22:45.907Z,94235.34
2019-04-07T15:25:33.082Z,94241.28
2019-04-07T15:28:22.575Z,94241.53
2019-04-07T15:31:11.737Z,94243.39
2019-04-07T15:34:00.931Z,94242.61
2019-04-07T15:36:52.444Z,94244.96
2019-04-07T15:39:41.658Z,94245.26
2019-04-07T15:42:40.349Z,94243.69
2019-04-07T15:45:21.641Z,94248.36
2019-04-07T15:48:10.719Z,94247.67
2019-04-07T15:51:04.621Z,94251.20
2019-04-07T15:53:53.155Z,94251.38
2019-04-07T15:56:42.366Z,94252.64
2019-04-07T15:59:31.440Z,94255.36
2019-04-07T16:02:19.982Z,94259.53
2019-04-07T16:05:10.488Z,94262.83
2019-04-07T16:07:59.632Z,94263.80
2019-04-07T16:10:52.072Z,94262.18
2019-04-07T16:13:40.971Z,94266.17
2019-04-07T16:16:30.760Z,94267.31
2019-04-07T16:19:28.689Z,94267.02
2019-04-07T16:22:12.497Z,94269.97
2019-04-07T16:25:00.684Z,94271.07
2019-04-07T16:27:51.111Z,94269.79
2019-04-07T16:30:40.683Z,94267.46
2019-04-07T16:33:34.699Z,94279.80
2019-04-07T16:36:20.014Z,94282.22
2019-04-07T16:39:10.094Z,94277.71
2019-04-07T16:41:59.110Z,94280.48
2019-04-07T16:44:48.374Z,94283.84
2019-04-07T16:47:38.242Z,94292.10
2019-04-07T16:50:28.212Z,94289.33
2019-04-07T16:53:17.236Z,94287.16
2019-04-07T16:56:08.069Z,94292.69
2019-04-07T16:58:56.911Z,94299.55
2019-04-07T17:01:49.781Z,94297.27
2019-04-07T17:04:41.025Z,94305.70
2019-04-07T17:07:30.639Z,94303.03
2019-04-07T17:10:19.740Z,94296.89
2019-04-07T17:13:17.880Z,94300.27
2019-04-07T17:16:00.626Z,94296.51
2019-04-07T17:18:51.099Z,94303.94
2019-04-07T17:21:42.722Z,94306.63
2019-04-07T17:24:31.308Z,94309.14
2019-04-07T17:27:22.966Z,94314.87
2019-04-07T17:30:18.219Z,94312.94
2019-04-07T17:33:08.149Z,94314.08
2019-04-07T17:35:58.121Z,94313.45
2019-04-07T17:39:09.509Z,94315.08
2019-04-07T17:42:00.392Z,94320.08
2019-04-07T17:45:13.192Z,94323.80
2019-04-07T17:48:21.344Z,94329.81
2019-04-07T17:51:28.709Z,94331.98
2019-04-07T17:54:34.976Z,94328.79
2019-04-07T17:57:37.094Z,94333.30
2019-04-07T18:00:47.541Z,94341.00
2019-04-07T18:03:56.382Z,94344.75
2019-04-07T18:07:08.191Z,94349.28
2019-04-07T18:10:32.371Z,94359.50
2019-04-07T18:13:47.171Z,94362.64
2019-04-07T18:16:49.394Z,94368.30
2019-04-07T18:19:49.122Z,94373.91
2019-04-07T18:22:58.064Z,94376.13
2019-04-07T18:26:04.187Z,94385.78
2019-04-07T18:29:03.865Z,94383.20
2019-04-07T18:32:12.079Z,94383.61
2019-04-07T18:35:20.553Z,94383.61
2019-04-07T18:38:16.150Z,94389.84
2019-04-07T18:41:22.873Z,94393.25
2019-04-07T18:44:40.382Z,94391.73
2019-04-07T18:47:48.253Z,94397.39
2019-04-07T18:50:55.754Z,94404.91
2019-04-07T18:54:05.171Z,94405.05
2019-04-07T18:57:27.210Z,94407.50
2019-04-07T19:00:32.432Z,94410.20
2019-04-07T19:03:45.329Z,94410.95
2019-04-07T19:06:55.916Z,94420.06
2019-04-07T19:10:09.511Z,94415.84
2019-04-07T19:13:15.869Z,94421.11
2019-04-07T19:16:24.654Z,94432.69
2019-04-07T19:19:48.480Z,94440.36
2019-04-07T19:23:02.834Z,94443.82
2019-04-07T19:26:09.812Z,94438.30
2019-04-07T19:29:10.013Z,94434.48
2019-04-07T19:32:09.945Z,94443.40
2019-04-07T19:35:20.659Z,94452.02
2019-04-07T19:38:27.397Z,94460.44
2019-04-07T19:41:38.266Z,94459.87
2019-04-07T19:44:53.336Z,94466.89
2019-04-07T19:48:11.479Z,94482.91
2019-04-07T19:51:17.803Z,94487.93
2019-04-07T19:54:31.862Z,94481.90
2019-04-07T19:57:48.568Z,94484.39
2019-04-07T20:01:01.223Z,94486.21
2019-04-07T20:04:16.400Z,94494.83
2019-04-07T20:07:14.625Z,94495.52
2019-04-07T20:10:23.749Z,94493.89
2019-04-07T20:13:41.008Z,94496.56
2019-04-07T20:16:36.455Z,94503.16
2019-04-07T20:19:53.601Z,94498.23
2019-04-07T20:23:02.180Z,94508.73
2019-04-07T20:26:23.017Z,94506.41
2019-04-07T20:29:23.633Z,94510.16
2019-04-07T20:32:26.674Z,94510.24
2019-04-07T20:35:20.850Z,94515.73
2019-04-07T20:38:42.186Z,94511.95
2019-04-07T20:41:46.919Z,94510.41
2019-04-07T20:45:02.410Z,94507.09
2019-04-07T20:48:07.334Z,94509.17
2019-04-07T20:51:18.769Z,94509.09
2019-04-07T20:54:25.947Z,94512.87
2019-04-07T20:57:26.400Z,94519.53
2019-04-07T21:00:36.924Z,94519.83
2019-04-07T21:03:39.149Z,94523.50
2019-04-07T21:06:53.974Z,94521.14
2019-04-07T21:10:14.126Z,94518.63
2019-04-07T21:13:19.313Z,94521.76
2019-04-07T21:16:43.074Z,94526.98
2019-04-07T21:19:54.333Z,94535.88
2019-04-07T21:23:00.667Z,94522.40
2019-04-07T21:25:57.180Z,94524.27
2019-04-07T21:29:09.032Z,94521.75
2019-04-07T21:32:18.902Z,94522.16
2019-04-07T21:35:39.500Z,94527.62
2019-04-07T21:38:46.376Z,94531.25
2019-04-07T21:41:54.171Z,94531.44
2019-04-07T21:45:11.752Z,94528.48
2019-04-07T21:48:22.465Z,94530.23
2019-04-07T21:51:46.013Z,94539.80
2019-04-07T21:54:56.453Z,94539.17
2019-04-07T21:58:01.264Z,94541.88
2019-04-07T22:00:55.408Z,94544.44
2019-04-07T22:04:03.739Z,94545.78
2019-04-07T22:07:24.996Z,94542.16
2019-04-07T22:10:18.723Z,94546.76
2019-04-07T22:13:06.736Z,94556.97
2019-04-07T22:15:59.333Z,94561.08
2019-04-07T22:18:47.048Z,94563.78
2019-04-07T22:21:36.243Z,94565.15
2019-04-07T22:24:26.323Z,94565.87
2019-04-07T22:27:17.571Z,94562.77
2019-04-07T22:30:09.141Z,94562.80
2019-04-07T22:32:57.387Z,94557.28
2019-04-07T22:35:46.225Z,94560.50
2019-04-07T22:38:34.594Z,94563.09
2019-04-07T22:41:24.963Z,94560.41
2019-04-07T22:44:13.782Z,94557.81
2019-04-07T22:47:02.929Z,94567.47
2019-04-07T22:49:52.683Z,94564.34
2019-04-07T22:52:42.046Z,94568.79
2019-04-07T22:55:31.218Z,94570.98
2019-04-07T22:58:20.302Z,94565.14
2019-04-07T23:01:09.176Z,94567.33
2019-04-07T23:03:58.122Z,94566.03
2019-04-07T23:06:47.904Z,94566.22
2019-04-07T23:09:37.050Z,94568.03
2019-04-07T23:12:26.571Z,94568.56
2019-04-07T23:15:16.587Z,94571.11
2019-04-07T23:18:05.438Z,94575.95
2019-04-07T23:20:54.234Z,94573.59
2019-04-07T23:23:42.614Z,94573.23
2019-04-07T23:26:32.044Z,94575.72
2019-04-07T23:29:21.865Z,94575.16
2019-04-07T23:32:11.429Z,94578.95
2019-04-07T23:35:00.730Z,94585.78
2019-04-07T23:37:49.826Z,94578.14
2019-04-07T23:40:38.552Z,94581.73
2019-04-07T23:43:27.568Z,94588.05
2019-04-07T23:46:23.155Z,94583.83
2019-04-07T23:49:06.503Z,94585.70
2019-04-07T23:51:55.407Z,94588.16
2019-04-07T23:54:43.991Z,94588.83
2019-04-07T23:57:33.069Z,94591.31
